sensor_id;sensor_type;location;lat;lon;timestamp;pressure;altitude;pressure_sealevel;temperature;humidity
23339;BME280;11841;49.368;20.962;2022-09-09T00:03:53;95442.81;;;17.79;100.00
23339;BME280;11841;49.368;20.962;2022-09-09T00:06:28;95450.59;;;17.80;100.00
23339;BME280;11841;49.368;20.962;2022-09-09T00:11:46;95443.91;;;17.78;100.00
23339;BME280;11841;49.368;20.962;2022-09-09T00:17:38;95453.53;;;17.64;100.00
23339;BME280;11841;49.368;20.962;2022-09-09T00:22:52;95458.09;;;17.68;100.00
23339;BME280;11841;49.368;20.962;2022-09-09T00:25:28;95460.28;;;17.71;100.00
23339;BME280;11841;49.368;20.962;2022-09-09T00:27:57;95449.28;;;17.73;100.00
23339;BME280;11841;49.368;20.962;2022-09-09T00:30:31;95451.69;;;17.74;100.00
23339;BME280;11841;49.368;20.962;2022-09-09T00:33:00;95461.06;;;17.72;100.00
23339;BME280;11841;49.368;20.962;2022-09-09T00:35:37;95457.31;;;17.73;100.00
23339;BME280;11841;49.368;20.962;2022-09-09T00:38:18;95451.41;;;17.76;100.00
23339;BME280;11841;49.368;20.962;2022-09-09T00:40:51;95448.72;;;17.76;100.00
23339;BME280;11841;49.368;20.962;2022-09-09T00:43:30;95456.78;;;17.76;100.00
23339;BME280;11841;49.368;20.962;2022-09-09T00:46:23;95454.63;;;17.78;100.00
23339;BME280;11841;49.368;20.962;2022-09-09T00:57:52;95447.91;;;17.75;100.00
23339;BME280;11841;49.368;20.962;2022-09-09T01:00:27;95455.69;;;17.77;100.00
23339;BME280;11841;49.368;20.962;2022-09-09T01:05:53;95451.41;;;17.76;100.00
23339;BME280;11841;49.368;20.962;2022-09-09T01:08:35;95451.41;;;17.76;100.00
23339;BME280;11841;49.368;20.962;2022-09-09T01:11:03;95452.47;;;17.75;100.00
23339;BME280;11841;49.368;20.962;2022-09-09T01:13:32;95455.97;;;17.75;100.00
23339;BME280;11841;49.368;20.962;2022-09-09T01:16:03;95462.13;;;17.76;100.00
23339;BME280;11841;49.368;20.962;2022-09-09T01:18:44;95458.09;;;17.73;100.00
23339;BME280;11841;49.368;20.962;2022-09-09T01:21:24;95463.47;;;17.73;100.00
23339;BME280;11841;49.368;20.962;2022-09-09T01:24:18;95464.28;;;17.74;100.00
23339;BME280;11841;49.368;20.962;2022-09-09T01:26:46;95470.19;;;17.66;100.00
23339;BME280;11841;49.368;20.962;2022-09-09T01:29:16;95471.22;;;17.65;100.00
23339;BME280;11841;49.368;20.962;2022-09-09T01:34:19;95472.31;;;17.69;100.00
23339;BME280;11841;49.368;20.962;2022-09-09T01:36:52;95482.50;;;17.72;100.00
23339;BME280;11841;49.368;20.962;2022-09-09T01:39:21;95473.41;;;17.73;100.00
23339;BME280;11841;49.368;20.962;2022-09-09T01:41:47;95482.78;;;17.75;100.00
23339;BME280;11841;49.368;20.962;2022-09-09T01:44:14;95480.91;;;17.76;100.00
23339;BME280;11841;49.368;20.962;2022-09-09T01:46:41;95479.03;;;17.76;100.00
23339;BME280;11841;49.368;20.962;2022-09-09T01:49:08;95479.81;;;17.77;100.00
23339;BME280;11841;49.368;20.962;2022-09-09T01:51:36;95485.72;;;17.79;100.00
23339;BME280;11841;49.368;20.962;2022-09-09T01:54:03;95485.19;;;17.77;100.00
23339;BME280;11841;49.368;20.962;2022-09-09T02:01:59;95492.44;;;17.81;100.00
23339;BME280;11841;49.368;20.962;2022-09-09T02:04:40;95485.47;;;17.80;100.00
23339;BME280;11841;49.368;20.962;2022-09-09T02:07:40;95495.41;;;17.80;100.00
23339;BME280;11841;49.368;20.962;2022-09-09T02:12:42;95487.34;;;17.80;100.00
23339;BME280;11841;49.368;20.962;2022-09-09T02:18:04;95487.09;;;17.81;100.00
23339;BME280;11841;49.368;20.962;2022-09-09T02:20:36;95502.38;;;17.81;100.00
23339;BME280;11841;49.368;20.962;2022-09-09T02:23:05;95493.78;;;17.79;100.00
23339;BME280;11841;49.368;20.962;2022-09-09T02:25:35;95493.50;;;17.80;100.00
23339;BME280;11841;49.368;20.962;2022-09-09T02:28:07;95497.00;;;17.81;100.00
23339;BME280;11841;49.368;20.962;2022-09-09T02:30:37;95498.31;;;17.83;100.00
23339;BME280;11841;49.368;20.962;2022-09-09T02:33:07;95502.09;;;17.82;100.00
23339;BME280;11841;49.368;20.962;2022-09-09T02:35:37;95499.41;;;17.82;100.00
23339;BME280;11841;49.368;20.962;2022-09-09T02:38:11;95496.72;;;17.82;100.00
23339;BME280;11841;49.368;20.962;2022-09-09T02:40:39;95503.97;;;17.82;100.00
23339;BME280;11841;49.368;20.962;2022-09-09T02:43:06;95508.28;;;17.83;100.00
23339;BME280;11841;49.368;20.962;2022-09-09T02:45:47;95506.66;;;17.82;100.00
23339;BME280;11841;49.368;20.962;2022-09-09T02:48:26;95517.63;;;17.80;100.00
23339;BME280;11841;49.368;20.962;2022-09-09T02:51:08;95521.94;;;17.76;100.00
23339;BME280;11841;49.368;20.962;2022-09-09T02:53:48;95512.81;;;17.77;100.00
23339;BME280;11841;49.368;20.962;2022-09-09T02:56:20;95515.22;;;17.79;100.00
23339;BME280;11841;49.368;20.962;2022-09-09T02:58:48;95518.72;;;17.79;100.00
23339;BME280;11841;49.368;20.962;2022-09-09T03:01:15;95524.84;;;17.65;100.00
23339;BME280;11841;49.368;20.962;2022-09-09T03:03:42;95522.16;;;17.65;100.00
23339;BME280;11841;49.368;20.962;2022-09-09T03:06:10;95510.38;;;17.66;100.00
23339;BME280;11841;49.368;20.962;2022-09-09T03:08:38;95512.53;;;17.69;100.00
23339;BME280;11841;49.368;20.962;2022-09-09T03:11:04;95517.09;;;17.73;100.00
23339;BME280;11841;49.368;20.962;2022-09-09T03:13:31;95522.72;;;17.67;100.00
23339;BME280;11841;49.368;20.962;2022-09-09T03:15:57;95524.31;;;17.63;100.00
23339;BME280;11841;49.368;20.962;2022-09-09T03:18:25;95520.56;;;17.64;100.00
23339;BME280;11841;49.368;20.962;2022-09-09T03:20:51;95517.88;;;17.64;100.00
23339;BME280;11841;49.368;20.962;2022-09-09T03:23:20;95511.97;;;17.67;100.00
23339;BME280;11841;49.368;20.962;2022-09-09T03:25:51;95518.97;;;17.68;100.00
23339;BME280;11841;49.368;20.962;2022-09-09T03:28:18;95523.25;;;17.64;100.00
23339;BME280;11841;49.368;20.962;2022-09-09T03:30:45;95529.16;;;17.66;100.00
23339;BME280;11841;49.368;20.962;2022-09-09T03:33:11;95522.72;;;17.67;100.00
23339;BME280;11841;49.368;20.962;2022-09-09T03:35:38;95523.78;;;17.66;100.00
23339;BME280;11841;49.368;20.962;2022-09-09T03:38:05;95524.34;;;17.68;100.00
23339;BME280;11841;49.368;20.962;2022-09-09T03:40:32;95526.22;;;17.67;100.00
23339;BME280;11841;49.368;20.962;2022-09-09T03:42:58;95524.34;;;17.68;100.00
23339;BME280;11841;49.368;20.962;2022-09-09T03:45:25;95525.13;;;17.68;100.00
23339;BME280;11841;49.368;20.962;2022-09-09T03:47:52;95528.88;;;17.67;100.00
23339;BME280;11841;49.368;20.962;2022-09-09T03:50:19;95520.56;;;17.69;100.00
23339;BME280;11841;49.368;20.962;2022-09-09T03:52:45;95529.69;;;17.68;100.00
23339;BME280;11841;49.368;20.962;2022-09-09T03:55:13;95530.47;;;17.68;100.00
23339;BME280;11841;49.368;20.962;2022-09-09T03:57:39;95534.25;;;17.67;100.00
23339;BME280;11841;49.368;20.962;2022-09-09T04:00:07;95547.66;;;17.67;100.00
23339;BME280;11841;49.368;20.962;2022-09-09T04:02:34;95540.44;;;17.68;100.00
23339;BME280;11841;49.368;20.962;2022-09-09T04:05:01;95533.69;;;17.65;100.00
23339;BME280;11841;49.368;20.962;2022-09-09T04:07:27;95538.78;;;17.62;100.00
23339;BME280;11841;49.368;20.962;2022-09-09T04:09:54;95542.00;;;17.59;100.00
23339;BME280;11841;49.368;20.962;2022-09-09T04:12:21;95533.66;;;17.50;100.00
23339;BME280;11841;49.368;20.962;2022-09-09T04:14:48;95538.16;;;17.45;100.00
23339;BME280;11841;49.368;20.962;2022-09-09T04:17:15;95541.94;;;17.44;100.00
23339;BME280;11841;49.368;20.962;2022-09-09T04:22:27;95545.13;;;17.36;100.00
23339;BME280;11841;49.368;20.962;2022-09-09T04:24:54;95550.22;;;17.37;100.00
23339;BME280;11841;49.368;20.962;2022-09-09T04:27:20;95551.56;;;17.40;100.00
23339;BME280;11841;49.368;20.962;2022-09-09T04:29:47;95550.22;;;17.37;100.00
23339;BME280;11841;49.368;20.962;2022-09-09T04:32:13;95556.31;;;17.28;100.00
23339;BME280;11841;49.368;20.962;2022-09-09T04:34:40;95542.91;;;17.23;100.00
23339;BME280;11841;49.368;20.962;2022-09-09T04:37:07;95547.47;;;17.22;100.00
23339;BME280;11841;49.368;20.962;2022-09-09T04:39:34;95550.38;;;17.21;100.00
23339;BME280;11841;49.368;20.962;2022-09-09T04:42:00;95559.53;;;17.25;100.00
23339;BME280;11841;49.368;20.962;2022-09-09T04:44:27;95560.91;;;17.27;100.00
23339;BME280;11841;49.368;20.962;2022-09-09T04:46:54;95561.69;;;17.28;100.00
23339;BME280;11841;49.368;20.962;2022-09-09T04:49:20;95568.66;;;17.29;100.00
23339;BME280;11841;49.368;20.962;2022-09-09T04:51:49;95566.00;;;17.34;100.00
23339;BME280;11841;49.368;20.962;2022-09-09T04:54:15;95567.06;;;17.38;100.00
23339;BME280;11841;49.368;20.962;2022-09-09T04:56:41;95565.47;;;17.37;100.00
23339;BME280;11841;49.368;20.962;2022-09-09T04:59:09;95568.72;;;17.39;100.00
23339;BME280;11841;49.368;20.962;2022-09-09T05:01:36;95566.84;;;17.39;100.00
23339;BME280;11841;49.368;20.962;2022-09-09T05:04:02;95571.41;;;17.44;100.00
23339;BME280;11841;49.368;20.962;2022-09-09T05:06:29;95566.88;;;17.44;100.00
23339;BME280;11841;49.368;20.962;2022-09-09T05:08:57;95569.31;;;17.46;100.00
23339;BME280;11841;49.368;20.962;2022-09-09T05:11:26;95575.44;;;17.46;100.00
23339;BME280;11841;49.368;20.962;2022-09-09T05:13:53;95578.38;;;17.45;100.00
23339;BME280;11841;49.368;20.962;2022-09-09T05:16:20;95575.69;;;17.45;100.00
23339;BME280;11841;49.368;20.962;2022-09-09T05:18:47;95571.94;;;17.41;100.00
23339;BME280;11841;49.368;20.962;2022-09-09T05:21:15;95573.81;;;17.40;100.00
23339;BME280;11841;49.368;20.962;2022-09-09T05:23:42;95574.63;;;17.41;100.00
23339;BME280;11841;49.368;20.962;2022-09-09T05:26:13;95575.94;;;17.43;100.00
23339;BME280;11841;49.368;20.962;2022-09-09T05:28:43;95579.72;;;17.42;100.00
23339;BME280;11841;49.368;20.962;2022-09-09T05:31:11;95583.72;;;17.45;100.00
23339;BME280;11841;49.368;20.962;2022-09-09T05:33:44;95587.50;;;17.44;100.00
23339;BME280;11841;49.368;20.962;2022-09-09T05:36:14;95576.50;;;17.45;100.00
23339;BME280;11841;49.368;20.962;2022-09-09T05:38:41;95587.00;;;17.47;100.00
23339;BME280;11841;49.368;20.962;2022-09-09T05:41:08;95581.09;;;17.50;100.00
23339;BME280;11841;49.368;20.962;2022-09-09T05:43:37;95580.31;;;17.49;100.00
23339;BME280;11841;49.368;20.962;2022-09-09T05:46:09;95585.84;;;17.43;100.00
23339;BME280;11841;49.368;20.962;2022-09-09T05:48:41;95579.16;;;17.40;100.00
23339;BME280;11841;49.368;20.962;2022-09-09T05:51:10;95586.38;;;17.40;100.00
23339;BME280;11841;49.368;20.962;2022-09-09T05:53:38;95596.56;;;17.43;100.00
23339;BME280;11841;49.368;20.962;2022-09-09T05:56:11;95593.66;;;17.44;100.00
23339;BME280;11841;49.368;20.962;2022-09-09T05:58:38;95591.53;;;17.46;100.00
23339;BME280;11841;49.368;20.962;2022-09-09T06:01:09;95585.84;;;17.43;100.00
23339;BME280;11841;49.368;20.962;2022-09-09T06:03:38;95591.75;;;17.45;100.00
23339;BME280;11841;49.368;20.962;2022-09-09T06:06:07;95590.97;;;17.44;100.00
23339;BME280;11841;49.368;20.962;2022-09-09T06:08:34;95588.50;;;17.38;100.00
23339;BME280;11841;49.368;20.962;2022-09-09T06:11:08;95592.28;;;17.37;100.00
23339;BME280;11841;49.368;20.962;2022-09-09T06:13:35;95597.09;;;17.35;100.00
23339;BME280;11841;49.368;20.962;2022-09-09T06:16:08;95598.94;;;17.34;100.00
23339;BME280;11841;49.368;20.962;2022-09-09T06:18:34;95595.22;;;17.35;100.00
23339;BME280;11841;49.368;20.962;2022-09-09T06:21:03;95599.00;;;17.39;100.00
23339;BME280;11841;49.368;20.962;2022-09-09T06:23:30;95595.50;;;17.39;100.00
23339;BME280;11841;49.368;20.962;2022-09-09T06:28:42;95604.66;;;17.48;100.00
23339;BME280;11841;49.368;20.962;2022-09-09T06:31:11;95608.44;;;17.52;100.00
23339;BME280;11841;49.368;20.962;2022-09-09T06:33:40;95597.72;;;17.52;100.00
23339;BME280;11841;49.368;20.962;2022-09-09T06:36:12;95601.50;;;17.51;100.00
23339;BME280;11841;49.368;20.962;2022-09-09T06:46:22;95620.31;;;17.66;100.00
23339;BME280;11841;49.368;20.962;2022-09-09T06:48:49;95612.25;;;17.66;100.00
23339;BME280;11841;49.368;20.962;2022-09-09T06:51:21;95610.41;;;17.66;100.00
23339;BME280;11841;49.368;20.962;2022-09-09T06:53:54;95609.31;;;17.67;100.00
23339;BME280;11841;49.368;20.962;2022-09-09T06:56:24;95615.22;;;17.69;100.00
23339;BME280;11841;49.368;20.962;2022-09-09T06:58:52;95617.63;;;17.66;100.00
23339;BME280;11841;49.368;20.962;2022-09-09T07:01:20;95616.53;;;17.67;100.00
23339;BME280;11841;49.368;20.962;2022-09-09T07:03:50;95617.66;;;17.71;100.00
23339;BME280;11841;49.368;20.962;2022-09-09T07:06:25;95618.69;;;17.70;100.00
23339;BME280;11841;49.368;20.962;2022-09-09T07:08:56;95614.41;;;17.69;100.00
23339;BME280;11841;49.368;20.962;2022-09-09T07:11:26;95618.19;;;17.68;100.00
23339;BME280;11841;49.368;20.962;2022-09-09T07:13:53;95617.38;;;17.72;100.00
23339;BME280;11841;49.368;20.962;2022-09-09T07:16:22;95628.94;;;17.78;100.00
23339;BME280;11841;49.368;20.962;2022-09-09T07:18:52;95633.22;;;17.79;100.00
23339;BME280;11841;49.368;20.962;2022-09-09T07:21:19;95627.03;;;17.78;100.00
23339;BME280;11841;49.368;20.962;2022-09-09T07:23:47;95631.63;;;17.83;100.00
23339;BME280;11841;49.368;20.962;2022-09-09T07:26:19;95627.88;;;17.84;100.00
23339;BME280;11841;49.368;20.962;2022-09-09T07:28:46;95629.72;;;17.83;100.00
23339;BME280;11841;49.368;20.962;2022-09-09T07:31:24;95630.53;;;17.79;100.00
23339;BME280;11841;49.368;20.962;2022-09-09T07:33:51;95634.31;;;17.83;100.00
23339;BME280;11841;49.368;20.962;2022-09-09T07:36:26;95633.22;;;17.84;100.00
23339;BME280;11841;49.368;20.962;2022-09-09T07:39:01;95632.19;;;17.85;99.63
23339;BME280;11841;49.368;20.962;2022-09-09T07:41:34;95632.47;;;17.88;100.00
23339;BME280;11841;49.368;20.962;2022-09-09T07:44:06;95637.56;;;17.90;99.58
23339;BME280;11841;49.368;20.962;2022-09-09T07:46:33;95640.25;;;17.90;98.67
23339;BME280;11841;49.368;20.962;2022-09-09T07:49:00;95638.63;;;17.94;99.01
23339;BME280;11841;49.368;20.962;2022-09-09T07:51:30;95633.81;;;17.96;98.96
23339;BME280;11841;49.368;20.962;2022-09-09T07:54:00;95642.94;;;18.00;99.16
23339;BME280;11841;49.368;20.962;2022-09-09T07:56:29;95645.38;;;18.06;98.73
23339;BME280;11841;49.368;20.962;2022-09-09T07:58:57;95642.69;;;18.12;97.75
23339;BME280;11841;49.368;20.962;2022-09-09T08:01:28;95649.16;;;18.16;96.86
23339;BME280;11841;49.368;20.962;2022-09-09T08:04:08;95645.94;;;18.14;96.73
23339;BME280;11841;49.368;20.962;2022-09-09T08:06:39;95640.56;;;18.14;96.68
23339;BME280;11841;49.368;20.962;2022-09-09T08:09:06;95642.19;;;18.20;97.50
23339;BME280;11841;49.368;20.962;2022-09-09T08:11:34;95641.66;;;18.28;97.87
23339;BME280;11841;49.368;20.962;2022-09-09T08:14:05;95659.66;;;18.32;96.81
23339;BME280;11841;49.368;20.962;2022-09-09T08:16:36;95647.84;;;18.33;96.31
23339;BME280;11841;49.368;20.962;2022-09-09T08:19:03;95644.63;;;18.36;96.05
23339;BME280;11841;49.368;20.962;2022-09-09T08:21:31;95654.84;;;18.39;95.73
23339;BME280;11841;49.368;20.962;2022-09-09T08:24:00;95663.94;;;18.38;92.71
23339;BME280;11841;49.368;20.962;2022-09-09T08:26:30;95667.72;;;18.37;91.03
23339;BME280;11841;49.368;20.962;2022-09-09T08:28:59;95659.66;;;18.32;89.90
23339;BME280;11841;49.368;20.962;2022-09-09T08:31:29;95666.06;;;18.26;90.50
23339;BME280;11841;49.368;20.962;2022-09-09T08:33:57;95671.44;;;18.26;90.87
23339;BME280;11841;49.368;20.962;2022-09-09T08:36:27;95661.25;;;18.23;89.81
23339;BME280;11841;49.368;20.962;2022-09-09T08:38:57;95667.69;;;18.22;89.74
23339;BME280;11841;49.368;20.962;2022-09-09T08:50:08;95679.97;;;18.08;89.66
23339;BME280;11841;49.368;20.962;2022-09-09T08:55:46;95676.22;;;18.09;90.61
23339;BME280;11841;49.368;20.962;2022-09-09T08:58:20;95671.41;;;18.11;91.31
23339;BME280;11841;49.368;20.962;2022-09-09T09:03:40;95676.25;;;18.19;90.99
23339;BME280;11841;49.368;20.962;2022-09-09T09:09:02;95673.09;;;18.37;90.72
23339;BME280;11841;49.368;20.962;2022-09-09T09:11:40;95667.75;;;18.47;90.65
23339;BME280;11841;49.368;20.962;2022-09-09T09:14:23;95676.38;;;18.54;90.36
23339;BME280;11841;49.368;20.962;2022-09-09T09:17:32;95670.72;;;18.61;90.69
23339;BME280;11841;49.368;20.962;2022-09-09T09:19:40;95666.97;;;18.67;91.22
23339;BME280;11841;49.368;20.962;2022-09-09T09:22:28;95677.69;;;18.72;89.36
23339;BME280;11841;49.368;20.962;2022-09-09T09:25:19;95675.84;;;18.72;87.38
23339;BME280;11841;49.368;20.962;2022-09-09T09:27:58;95676.38;;;18.69;86.08
23339;BME280;11841;49.368;20.962;2022-09-09T09:30:42;95679.88;;;18.65;85.68
23339;BME280;11841;49.368;20.962;2022-09-09T09:33:17;95681.19;;;18.62;85.78
23339;BME280;11841;49.368;20.962;2022-09-09T09:35:45;95667.22;;;18.60;86.44
23339;BME280;11841;49.368;20.962;2022-09-09T09:38:22;95681.75;;;18.64;87.07
23339;BME280;11841;49.368;20.962;2022-09-09T09:41:09;95681.75;;;18.69;87.98
23339;BME280;11841;49.368;20.962;2022-09-09T09:43:37;95675.28;;;18.75;87.84
23339;BME280;11841;49.368;20.962;2022-09-09T09:46:19;95672.88;;;18.74;86.33
23339;BME280;11841;49.368;20.962;2022-09-09T09:48:57;95687.94;;;18.70;85.49
23339;BME280;11841;49.368;20.962;2022-09-09T09:51:25;95687.13;;;18.69;86.27
23339;BME280;11841;49.368;20.962;2022-09-09T09:53:53;95690.06;;;18.68;84.12
23339;BME280;11841;49.368;20.962;2022-09-09T09:56:27;95681.47;;;18.66;84.65
23339;BME280;11841;49.368;20.962;2022-09-09T09:58:55;95688.44;;;18.67;85.46
23339;BME280;11841;49.368;20.962;2022-09-09T10:01:31;95686.84;;;18.66;85.94
23339;BME280;11841;49.368;20.962;2022-09-09T10:06:33;95690.84;;;18.68;86.57
23339;BME280;11841;49.368;20.962;2022-09-09T10:09:01;95691.13;;;18.67;85.77
23339;BME280;11841;49.368;20.962;2022-09-09T10:14:25;95697.03;;;18.69;86.07
23339;BME280;11841;49.368;20.962;2022-09-09T10:19:36;95704.03;;;18.70;86.05
23339;BME280;11841;49.368;20.962;2022-09-09T10:30:18;95708.88;;;18.78;84.68
23339;BME280;11841;49.368;20.962;2022-09-09T10:32:46;95703.22;;;18.79;85.31
23339;BME280;11841;49.368;20.962;2022-09-09T10:35:30;95710.47;;;18.84;84.82
23339;BME280;11841;49.368;20.962;2022-09-09T10:40:50;95704.84;;;18.90;84.16
23339;BME280;11841;49.368;20.962;2022-09-09T10:43:55;95710.22;;;18.95;83.86
23339;BME280;11841;49.368;20.962;2022-09-09T10:46:58;95705.38;;;18.97;83.24
23339;BME280;11841;49.368;20.962;2022-09-09T10:52:33;95709.16;;;19.01;82.46
23339;BME280;11841;49.368;20.962;2022-09-09T10:55:13;95710.25;;;19.05;82.94
23339;BME280;11841;49.368;20.962;2022-09-09T10:57:50;95687.38;;;19.13;83.10
23339;BME280;11841;49.368;20.962;2022-09-09T11:00:27;95679.56;;;19.21;83.24
23339;BME280;11841;49.368;20.962;2022-09-09T11:03:00;95683.34;;;19.31;84.15
23339;BME280;11841;49.368;20.962;2022-09-09T11:05:43;95694.09;;;19.41;84.28
23339;BME280;11841;49.368;20.962;2022-09-09T11:08:23;95687.63;;;19.47;83.98
23339;BME280;11841;49.368;20.962;2022-09-09T11:13:42;95683.03;;;19.57;82.76
23339;BME280;11841;49.368;20.962;2022-09-09T11:18:46;95690.78;;;19.64;82.57
23339;BME280;11841;49.368;20.962;2022-09-09T11:21:27;95696.69;;;19.71;83.26
23339;BME280;11841;49.368;20.962;2022-09-09T11:23:59;95692.41;;;19.75;84.26
23339;BME280;11841;49.368;20.962;2022-09-09T11:26:32;95701.50;;;19.79;84.39
23339;BME280;11841;49.368;20.962;2022-09-09T11:32:22;95698.56;;;19.75;81.96
23339;BME280;11841;49.368;20.962;2022-09-09T11:42:49;95701.25;;;19.75;81.63
23339;BME280;11841;49.368;20.962;2022-09-09T11:45:28;95704.75;;;19.76;81.63
23339;BME280;11841;49.368;20.962;2022-09-09T11:47:56;95708.00;;;19.73;79.83
23339;BME280;11841;49.368;20.962;2022-09-09T11:52:50;95703.16;;;19.70;79.44
23339;BME280;11841;49.368;20.962;2022-09-09T11:55:32;95710.69;;;19.68;80.31
23339;BME280;11841;49.368;20.962;2022-09-09T12:06:33;95708.03;;;19.63;77.32
23339;BME280;11841;49.368;20.962;2022-09-09T12:09:21;95706.91;;;19.69;76.24
23339;BME280;11841;49.368;20.962;2022-09-09T12:11:49;95702.91;;;19.71;77.43
23339;BME280;11841;49.368;20.962;2022-09-09T12:14:21;95701.78;;;19.77;76.63
23339;BME280;11841;49.368;20.962;2022-09-09T12:16:49;95704.72;;;19.81;76.82
23339;BME280;11841;49.368;20.962;2022-09-09T12:19:21;95705.25;;;19.88;78.48
23339;BME280;11841;49.368;20.962;2022-09-09T12:22:07;95707.66;;;19.89;78.51
23339;BME280;11841;49.368;20.962;2022-09-09T12:24:45;95711.97;;;19.95;78.67
23339;BME280;11841;49.368;20.962;2022-09-09T12:27:39;95712.72;;;20.01;79.22
23339;BME280;11841;49.368;20.962;2022-09-09T12:30:10;95712.72;;;20.06;79.05
23339;BME280;11841;49.368;20.962;2022-09-09T12:32:38;95696.53;;;20.16;78.85
23339;BME280;11841;49.368;20.962;2022-09-09T12:35:19;95699.75;;;20.23;77.25
23339;BME280;11841;49.368;20.962;2022-09-09T12:37:51;95693.28;;;20.24;76.97
23339;BME280;11841;49.368;20.962;2022-09-09T12:40:30;95698.13;;;20.27;75.95
23339;BME280;11841;49.368;20.962;2022-09-09T12:42:58;95681.97;;;20.27;75.80
23339;BME280;11841;49.368;20.962;2022-09-09T12:45:30;95693.53;;;20.27;76.01
23339;BME280;11841;49.368;20.962;2022-09-09T12:48:09;95697.00;;;20.33;76.01
23339;BME280;11841;49.368;20.962;2022-09-09T12:50:47;95685.13;;;20.39;76.25
23339;BME280;11841;49.368;20.962;2022-09-09T12:53:22;95675.41;;;20.43;75.01
23339;BME280;11841;49.368;20.962;2022-09-09T12:55:56;95684.56;;;20.42;74.31
23339;BME280;11841;49.368;20.962;2022-09-09T12:58:23;95684.50;;;20.52;76.22
23339;BME280;11841;49.368;20.962;2022-09-09T13:00:53;95687.38;;;20.66;75.77
23339;BME280;11841;49.368;20.962;2022-09-09T13:03:23;95687.59;;;20.74;74.94
23339;BME280;11841;49.368;20.962;2022-09-09T13:05:52;95684.06;;;20.74;73.65
23339;BME280;11841;49.368;20.962;2022-09-09T13:08:20;95677.88;;;20.78;74.32
23339;BME280;11841;49.368;20.962;2022-09-09T13:10:50;95676.13;;;20.92;74.00
23339;BME280;11841;49.368;20.962;2022-09-09T13:13:37;95669.69;;;20.88;73.22
23339;BME280;11841;49.368;20.962;2022-09-09T13:16:06;95661.91;;;20.87;74.88
23339;BME280;11841;49.368;20.962;2022-09-09T13:18:36;95660.47;;;20.94;74.44
23339;BME280;11841;49.368;20.962;2022-09-09T13:21:05;95661.28;;;20.95;73.79
23339;BME280;11841;49.368;20.962;2022-09-09T13:23:34;95665.31;;;20.97;74.35
23339;BME280;11841;49.368;20.962;2022-09-09T13:26:04;95669.88;;;21.02;74.41
23339;BME280;11841;49.368;20.962;2022-09-09T13:28:32;95665.84;;;20.99;73.64
23339;BME280;11841;49.368;20.962;2022-09-09T13:33:29;95652.19;;;20.86;73.38
23339;BME280;11841;49.368;20.962;2022-09-09T13:35:59;95659.22;;;20.87;73.21
23339;BME280;11841;49.368;20.962;2022-09-09T13:38:28;95645.50;;;20.83;73.79
23339;BME280;11841;49.368;20.962;2022-09-09T13:41:01;95641.59;;;20.94;73.99
23339;BME280;11841;49.368;20.962;2022-09-09T13:43:43;95647.50;;;21.01;73.84
23339;BME280;11841;49.368;20.962;2022-09-09T13:46:39;95642.31;;;21.10;74.76
23339;BME280;11841;49.368;20.962;2022-09-09T13:51:38;95633.28;;;21.24;74.06
23339;BME280;11841;49.368;20.962;2022-09-09T13:54:06;95618.66;;;21.30;73.45
23339;BME280;11841;49.368;20.962;2022-09-09T13:56:35;95613.50;;;21.34;73.62
23339;BME280;11841;49.368;20.962;2022-09-09T13:59:04;95616.44;;;21.37;73.40
23339;BME280;11841;49.368;20.962;2022-09-09T14:01:31;95621.00;;;21.37;73.06
23339;BME280;11841;49.368;20.962;2022-09-09T14:03:57;95616.44;;;21.37;72.08
23339;BME280;11841;49.368;20.962;2022-09-09T14:06:25;95624.00;;;21.35;72.08
23339;BME280;11841;49.368;20.962;2022-09-09T14:08:51;95609.94;;;21.38;72.37
23339;BME280;11841;49.368;20.962;2022-09-09T14:11:18;95602.88;;;21.42;72.56
23339;BME280;11841;49.368;20.962;2022-09-09T14:13:45;95610.91;;;21.47;72.43
23339;BME280;11841;49.368;20.962;2022-09-09T14:16:12;95611.44;;;21.49;72.02
23339;BME280;11841;49.368;20.962;2022-09-09T14:18:38;95605.75;;;21.51;71.69
23339;BME280;11841;49.368;20.962;2022-09-09T14:21:05;95606.00;;;21.54;71.70
23339;BME280;11841;49.368;20.962;2022-09-09T14:23:31;95608.63;;;21.59;71.72
23339;BME280;11841;49.368;20.962;2022-09-09T14:25:58;95604.81;;;21.60;70.07
23339;BME280;11841;49.368;20.962;2022-09-09T14:28:25;95607.00;;;21.58;70.57
23339;BME280;11841;49.368;20.962;2022-09-09T14:31:12;95610.81;;;21.57;70.77
23339;BME280;11841;49.368;20.962;2022-09-09T14:33:40;95615.97;;;21.54;70.43
23339;BME280;11841;49.368;20.962;2022-09-09T14:36:07;95616.84;;;21.49;70.76
23339;BME280;11841;49.368;20.962;2022-09-09T14:38:35;95612.03;;;21.46;70.95
23339;BME280;11841;49.368;20.962;2022-09-09T14:41:07;95618.50;;;21.45;71.81
23339;BME280;11841;49.368;20.962;2022-09-09T14:43:33;95610.50;;;21.35;71.68
23339;BME280;11841;49.368;20.962;2022-09-09T14:46:07;95609.75;;;21.30;71.88
23339;BME280;11841;49.368;20.962;2022-09-09T14:48:34;95619.53;;;21.26;72.27
23339;BME280;11841;49.368;20.962;2022-09-09T14:51:09;95614.97;;;21.21;72.46
23339;BME280;11841;49.368;20.962;2022-09-09T14:53:36;95607.44;;;21.18;72.47
23339;BME280;11841;49.368;20.962;2022-09-09T14:56:14;95606.63;;;21.18;70.46
23339;BME280;11841;49.368;20.962;2022-09-09T14:58:41;95604.22;;;21.16;70.40
23339;BME280;11841;49.368;20.962;2022-09-09T15:01:17;95601.06;;;21.09;70.26
23339;BME280;11841;49.368;20.962;2022-09-09T15:03:49;95599.19;;;21.10;71.66
23339;BME280;11841;49.368;20.962;2022-09-09T15:06:17;95603.69;;;21.19;70.92
23339;BME280;11841;49.368;20.962;2022-09-09T15:08:44;95603.09;;;21.22;69.21